Time;durP1;ratioP1;P1;durP2;ratioP2;P2;SDS_P1;SDS_P2;PMS_P1;PMS_P2;Temp;Humidity;BMP_temperature;BMP_pressure;BME280_temperature;BME280_humidity;BME280_pressure;Samples;Min_cycle;Max_cycle;Signal;HPM_P1;HPM_P2
2024/02/17 00:01:21;;;;;;;16.6;9.3;;;;;;;4.8;86.21;;;;;
2024/02/17 00:12:21;;;;;;;16.6;9.3;;;;;;;4.98;85.7;;;;;
2024/02/17 00:23:21;;;;;;;15.2;6.8;;;;;;;4.86;85.67;;;;;
2024/02/17 00:34:23;;;;;;;15.2;6.8;;;;;;;4.77;84.44;;;;;
2024/02/17 00:45:21;;;;;;;12.1;6.1;;;;;;;4.96;86.01;;;;;
2024/02/17 00:56:21;;;;;;;12.1;6.1;;;;;;;5;84.44;;;;;
2024/02/17 01:07:21;;;;;;;12.1;6.1;;;;;;;4.65;83.74;;;;;
2024/02/17 01:18:21;;;;;;;11.2;6.1;;;;;;;4.62;84.81;;;;;
2024/02/17 01:28:21;;;;;;;11.2;6.1;;;;;;;4.56;84.05;;;;;
2024/02/17 01:39:23;;;;;;;11.2;6.1;;;;;;;4.39;83.75;;;;;
2024/02/17 01:50:21;;;;;;;11.9;6;;;;;;;4.22;83.9;;;;;
2024/02/17 02:00:21;;;;;;;11.9;6;;;;;;;4.14;84.24;;;;;
2024/02/17 02:10:21;;;;;;;11.9;6;;;;;;;3.95;84.31;;;;;
2024/02/17 02:21:21;;;;;;;21.7;12.1;;;;;;;3.84;84.55;;;;;
2024/02/17 02:31:21;;;;;;;21.7;12.1;;;;;;;3.7;84.75;;;;;
2024/02/17 02:42:21;;;;;;;29.9;18.1;;;;;;;3.43;85.12;;;;;
2024/02/17 02:52:21;;;;;;;29.9;18.1;;;;;;;3.27;85.37;;;;;
2024/02/17 03:02:21;;;;;;;29.9;18.1;;;;;;;3.21;85.53;;;;;
2024/02/17 03:13:21;;;;;;;24.6;13.9;;;;;;;3.12;85.62;;;;;
2024/02/17 03:23:21;;;;;;;24.6;13.9;;;;;;;3.47;87.12;;;;;
2024/02/17 03:33:21;;;;;;;24.6;13.9;;;;;;;3.4;86.37;;;;;
2024/02/17 03:44:21;;;;;;;13.2;7.2;;;;;;;3.45;86.57;;;;;
2024/02/17 03:54:21;;;;;;;13.2;7.2;;;;;;;3.36;85.84;;;;;
2024/02/17 04:05:21;;;;;;;13.2;7.2;;;;;;;3.29;86.04;;;;;
2024/02/17 04:15:21;;;;;;;16.2;10.2;;;;;;;3.17;85.4;;;;;
2024/02/17 04:25:21;;;;;;;16.2;10.2;;;;;;;3.2;86.95;;;;;
2024/02/17 04:35:21;;;;;;;16.2;10.2;;;;;;;3.64;88.61;;;;;
2024/02/17 04:45:21;;;;;;;18.8;11.7;;;;;;;4.01;88.83;;;;;
2024/02/17 04:56:21;;;;;;;18.8;11.7;;;;;;;4.48;89.3;;;;;
2024/02/17 05:07:21;;;;;;;18.8;11.7;;;;;;;4.79;88.88;;;;;
2024/02/17 05:17:21;;;;;;;19.1;10.4;;;;;;;5.18;88.54;;;;;
2024/02/17 05:27:21;;;;;;;19.1;10.4;;;;;;;5.43;87.82;;;;;
2024/02/17 05:37:21;;;;;;;19.1;10.4;;;;;;;5.69;87.27;;;;;
2024/02/17 05:47:21;;;;;;;21.9;11.4;;;;;;;5.93;86.6;;;;;
2024/02/17 05:57:21;;;;;;;21.9;11.4;;;;;;;6.21;86.04;;;;;
2024/02/17 06:08:21;;;;;;;21.9;11.4;;;;;;;6.42;85.23;;;;;
2024/02/17 06:30:21;;;;;;;16.7;10.7;;;;;;;6.76;82.94;;;;;
2024/02/17 06:40:21;;;;;;;16.7;10.7;;;;;;;6.91;82.36;;;;;
2024/02/17 06:50:21;;;;;;;15.2;10.5;;;;;;;7.01;81.53;;;;;
2024/02/17 07:01:21;;;;;;;15.2;10.5;;;;;;;7.15;81.49;;;;;
2024/02/17 07:12:21;;;;;;;19.7;12.1;;;;;;;7.28;80.58;;;;;
2024/02/17 07:22:21;;;;;;;19.7;12.1;;;;;;;7.62;80.3;;;;;
2024/02/17 07:32:23;;;;;;;19.7;12.1;;;;;;;7.84;79.15;;;;;
2024/02/17 07:42:22;;;;;;;21.2;13.5;;;;;;;7.93;78.59;;;;;
2024/02/17 07:52:21;;;;;;;21.2;13.5;;;;;;;7.95;77.82;;;;;
2024/02/17 08:03:21;;;;;;;21.2;13.5;;;;;;;8.22;77.13;;;;;
2024/02/17 08:14:21;;;;;;;25.3;15.6;;;;;;;8.68;76.95;;;;;
2024/02/17 08:24:21;;;;;;;25.3;15.6;;;;;;;8.88;75.37;;;;;
2024/02/17 08:34:21;;;;;;;25.3;15.6;;;;;;;8.86;74.74;;;;;
2024/02/17 08:45:21;;;;;;;24.5;17.2;;;;;;;8.98;74.77;;;;;
2024/02/17 08:56:21;;;;;;;24.5;17.2;;;;;;;8.81;74.27;;;;;
2024/02/17 09:07:21;;;;;;;24.5;17.2;;;;;;;8.49;76.11;;;;;
2024/02/17 09:17:21;;;;;;;29.1;18.9;;;;;;;8.56;76.99;;;;;
2024/02/17 09:28:21;;;;;;;29.1;18.9;;;;;;;8.53;78.81;;;;;
2024/02/17 09:39:21;;;;;;;29.1;18.9;;;;;;;8.52;81.18;;;;;
2024/02/17 09:49:21;;;;;;;25.2;15.8;;;;;;;8.58;82.19;;;;;
2024/02/17 10:00:21;;;;;;;25.2;15.8;;;;;;;8.66;83.57;;;;;
2024/02/17 10:11:21;;;;;;;19.3;12.1;;;;;;;8.77;84.32;;;;;
2024/02/17 10:22:21;;;;;;;19.3;12.1;;;;;;;8.7;85.48;;;;;
2024/02/17 10:33:21;;;;;;;19.3;12.1;;;;;;;8.86;85.64;;;;;
2024/02/17 10:44:23;;;;;;;17.3;11.9;;;;;;;8.8;85.84;;;;;
2024/02/17 10:54:21;;;;;;;17.3;11.9;;;;;;;8.94;86.92;;;;;
2024/02/17 11:05:21;;;;;;;17.3;11.9;;;;;;;8.9;86.35;;;;;
2024/02/17 11:15:21;;;;;;;19.7;14.5;;;;;;;8.91;86.56;;;;;
2024/02/17 11:25:21;;;;;;;19.7;14.5;;;;;;;8.92;86.61;;;;;
2024/02/17 11:36:21;;;;;;;19.7;14.5;;;;;;;9.19;85.99;;;;;
2024/02/17 11:46:23;;;;;;;24.1;16.4;;;;;;;9.25;86.16;;;;;
2024/02/17 11:57:21;;;;;;;24.1;16.4;;;;;;;9.3;86.07;;;;;
2024/02/17 12:08:21;;;;;;;24.1;16.4;;;;;;;9.24;85.62;;;;;
2024/02/17 12:19:21;;;;;;;21.9;16.7;;;;;;;9.06;86.21;;;;;
2024/02/17 12:29:21;;;;;;;21.9;16.7;;;;;;;9.08;86.28;;;;;
2024/02/17 12:40:21;;;;;;;21.9;16.7;;;;;;;8.86;87.15;;;;;
2024/02/17 12:50:21;;;;;;;21.4;15.1;;;;;;;8.69;88.02;;;;;
2024/02/17 13:01:21;;;;;;;21.4;15.1;;;;;;;8.63;88.81;;;;;
2024/02/17 13:12:21;;;;;;;23;15.4;;;;;;;8.55;89.33;;;;;
2024/02/17 13:23:21;;;;;;;23;15.4;;;;;;;8.25;90.09;;;;;
2024/02/17 13:33:21;;;;;;;23;15.4;;;;;;;8.34;90.47;;;;;
2024/02/17 13:44:21;;;;;;;21.7;13.7;;;;;;;8.44;90.64;;;;;
2024/02/17 13:55:21;;;;;;;21.7;13.7;;;;;;;8.54;90.5;;;;;
2024/02/17 14:06:21;;;;;;;21.7;13.7;;;;;;;8.64;90.42;;;;;
2024/02/17 14:16:21;;;;;;;28.3;17.5;;;;;;;8.85;90.68;;;;;
2024/02/17 14:27:21;;;;;;;28.3;17.5;;;;;;;9.04;90.2;;;;;
2024/02/17 14:37:21;;;;;;;28.3;17.5;;;;;;;9.09;89.88;;;;;
2024/02/17 14:47:21;;;;;;;20.7;14.1;;;;;;;9.15;89.78;;;;;
2024/02/17 14:58:21;;;;;;;20.7;14.1;;;;;;;9.12;89.9;;;;;
2024/02/17 15:09:21;;;;;;;20.7;14.1;;;;;;;9.22;89.79;;;;;
2024/02/17 15:20:21;;;;;;;25.1;17.9;;;;;;;9.26;89.85;;;;;
2024/02/17 15:31:21;;;;;;;25.1;17.9;;;;;;;9.15;89.87;;;;;
2024/02/17 15:41:21;;;;;;;20.6;14.2;;;;;;;9.21;89.77;;;;;
2024/02/17 15:51:21;;;;;;;20.6;14.2;;;;;;;9.22;89.72;;;;;
2024/02/17 16:02:21;;;;;;;20.6;14.2;;;;;;;9.16;89.96;;;;;
2024/02/17 16:13:21;;;;;;;36.4;22.4;;;;;;;9.11;89.79;;;;;
2024/02/17 16:24:21;;;;;;;36.4;22.4;;;;;;;8.95;89.99;;;;;
2024/02/17 16:34:21;;;;;;;36.4;22.4;;;;;;;8.94;90.05;;;;;
2024/02/17 16:45:21;;;;;;;35.3;21.9;;;;;;;8.94;89.98;;;;;
2024/02/17 16:56:22;;;;;;;35.3;21.9;;;;;;;8.95;89.84;;;;;
2024/02/17 17:06:21;;;;;;;35.3;21.9;;;;;;;8.85;89.83;;;;;
2024/02/17 17:16:21;;;;;;;28.6;18.7;;;;;;;8.77;89.88;;;;;
2024/02/17 17:27:21;;;;;;;28.6;18.7;;;;;;;8.62;89.56;;;;;
2024/02/17 17:37:21;;;;;;;28.6;18.7;;;;;;;8.47;90.03;;;;;
2024/02/17 17:48:21;;;;;;;22.5;15.9;;;;;;;8.43;89.71;;;;;
2024/02/17 17:59:21;;;;;;;22.5;15.9;;;;;;;8.48;89.29;;;;;
2024/02/17 18:10:22;;;;;;;22.5;15.9;;;;;;;8.47;88.93;;;;;
2024/02/17 18:20:22;;;;;;;27.7;18;;;;;;;8.45;88.93;;;;;
2024/02/17 18:31:21;;;;;;;27.7;18;;;;;;;8.42;88.59;;;;;
2024/02/17 18:41:21;;;;;;;27;17.3;;;;;;;8.44;88.62;;;;;
2024/02/17 18:52:22;;;;;;;27;17.3;;;;;;;8.45;88.23;;;;;
2024/02/17 19:02:21;;;;;;;27;17.3;;;;;;;8.38;88.27;;;;;
2024/02/17 19:12:21;;;;;;;29.3;19.9;;;;;;;8.4;88.05;;;;;
2024/02/17 19:23:21;;;;;;;29.3;19.9;;;;;;;8.44;88.01;;;;;
2024/02/17 19:33:23;;;;;;;29.3;19.9;;;;;;;8.34;88.41;;;;;
2024/02/17 19:44:21;;;;;;;25.3;17.7;;;;;;;8.17;88.5;;;;;
2024/02/17 19:54:21;;;;;;;25.3;17.7;;;;;;;8.19;88.25;;;;;
2024/02/17 20:05:21;;;;;;;25.3;17.7;;;;;;;8.08;88.34;;;;;
2024/02/17 20:16:21;;;;;;;28.7;20.2;;;;;;;8.05;88.12;;;;;
2024/02/17 20:26:21;;;;;;;28.7;20.2;;;;;;;7.89;88.14;;;;;
2024/02/17 20:37:21;;;;;;;28.7;20.2;;;;;;;7.91;87.65;;;;;
2024/02/17 20:48:21;;;;;;;27.6;16.8;;;;;;;7.96;87.49;;;;;
2024/02/17 20:59:21;;;;;;;27.6;16.8;;;;;;;7.94;87.12;;;;;
2024/02/17 21:09:21;;;;;;;27.6;16.8;;;;;;;7.96;87.06;;;;;
2024/02/17 21:20:21;;;;;;;24.1;14.2;;;;;;;7.97;87.02;;;;;
2024/02/17 21:30:21;;;;;;;24.1;14.2;;;;;;;7.89;86.92;;;;;
2024/02/17 21:40:22;;;;;;;24.1;14.2;;;;;;;7.89;86.85;;;;;
2024/02/17 21:51:22;;;;;;;21.2;14.7;;;;;;;7.84;86.46;;;;;
2024/02/17 22:01:21;;;;;;;21.2;14.7;;;;;;;7.76;85.49;;;;;
2024/02/17 22:12:22;;;;;;;13.6;9.1;;;;;;;7.47;80.58;;;;;
2024/02/17 22:22:21;;;;;;;13.6;9.1;;;;;;;7.33;80.74;;;;;
2024/02/17 22:32:21;;;;;;;13.6;9.1;;;;;;;7.2;81.35;;;;;
2024/02/17 22:43:21;;;;;;;8.7;3;;;;;;;6.95;79.17;;;;;
2024/02/17 22:53:21;;;;;;;8.7;3;;;;;;;6.65;78.43;;;;;
2024/02/17 23:03:21;;;;;;;8.7;3;;;;;;;6.49;80.08;;;;;
2024/02/17 23:14:21;;;;;;;3.7;1.8;;;;;;;6.23;79.28;;;;;
2024/02/17 23:24:21;;;;;;;3.7;1.8;;;;;;;5.9;79.91;;;;;
2024/02/17 23:35:22;;;;;;;3.7;1.8;;;;;;;5.77;81.13;;;;;
2024/02/17 23:46:21;;;;;;;4.4;2.1;;;;;;;5.62;81.82;;;;;
2024/02/17 23:56:21;;;;;;;4.4;2.1;;;;;;;5.61;81.62;;;;;
